Time;durP1;ratioP1;P1;durP2;ratioP2;P2;SDS_P1;SDS_P2;PMS_P1;PMS_P2;Temp;Humidity;BMP_temperature;BMP_pressure;BME280_temperature;BME280_humidity;BME280_pressure;Samples;Min_cycle;Max_cycle;Signal;HPM_P1;HPM_P2
2021/08/10 00:00:08;;;;;;;2.53;2.17;;;;;;;;;;3566854;40;20347;-74
2021/08/10 00:02:34;;;;;;;3.35;1.88;;;;;;;;;;3566630;40;20840;-73
2021/08/10 00:05:00;;;;;;;2.95;1.98;;;;;;;;;;3566478;40;20386;-72
2021/08/10 00:07:28;;;;;;;4.47;2.55;;;;;;;;;;3565550;40;20439;-74
2021/08/10 00:09:54;;;;;;;3.00;1.92;;;;;;;;;;3558606;40;20499;-73
2021/08/10 00:12:21;;;;;;;5.05;2.50;;;;;;;;;;3558587;40;20644;-73
2021/08/10 00:14:48;;;;;;;4.03;2.13;;;;;;;;;;3558303;40;20406;-73
2021/08/10 00:17:14;;;;;;;3.65;2.10;;;;;;;;;;3564259;40;20499;-73
2021/08/10 00:19:40;;;;;;;3.00;1.88;;;;;;;;;;3561699;40;20408;-75
2021/08/10 00:22:06;;;;;;;3.50;2.00;;;;;;;;;;3568184;40;20377;-73
2021/08/10 00:24:34;;;;;;;2.72;1.77;;;;;;;;;;3565230;40;20366;-71
2021/08/10 00:27:01;;;;;;;2.78;1.90;;;;;;;;;;3563648;40;20651;-73
2021/08/10 00:29:27;;;;;;;4.18;2.15;;;;;;;;;;3558478;40;20393;-73
2021/08/10 00:31:53;;;;;;;2.97;2.10;;;;;;;;;;3558426;40;20497;-72
2021/08/10 00:34:19;;;;;;;2.05;1.63;;;;;;;;;;3567807;40;20402;-75
2021/08/10 00:36:45;;;;;;;4.22;2.22;;;;;;;;;;3568176;40;20802;-73
2021/08/10 00:39:12;;;;;;;4.63;2.40;;;;;;;;;;3567999;40;20639;-73
2021/08/10 00:41:39;;;;;;;3.67;2.30;;;;;;;;;;3556983;40;20748;-74
2021/08/10 00:44:05;;;;;;;3.42;2.00;;;;;;;;;;3551210;40;20639;-75
2021/08/10 00:46:32;;;;;;;4.13;2.10;;;;;;;;;;3567800;40;20656;-75
2021/08/10 00:48:58;;;;;;;3.33;1.95;;;;;;;;;;3564479;40;20718;-74
2021/08/10 00:51:25;;;;;;;3.60;1.80;;;;;;;;;;3558148;40;20658;-75
2021/08/10 00:53:52;;;;;;;2.85;2.20;;;;;;;;;;3558094;40;20453;-73
2021/08/10 00:56:18;;;;;;;4.28;2.30;;;;;;;;;;3568075;40;20504;-73
2021/08/10 00:58:45;;;;;;;5.30;2.08;;;;;;;;;;3558423;40;20398;-72
2021/08/10 01:01:11;;;;;;;4.95;2.20;;;;;;;;;;3564372;40;20868;-75
2021/08/10 01:03:38;;;;;;;6.22;2.13;;;;;;;;;;3567625;40;20397;-73
2021/08/10 01:06:07;;;;;;;3.00;1.85;;;;;;;;;;3566057;40;20749;-72
2021/08/10 01:08:38;;;;;;;3.58;1.83;;;;;;;;;;3567742;40;20349;-73
2021/08/10 01:11:08;;;;;;;3.20;1.80;;;;;;;;;;3567793;40;20440;-73
2021/08/10 01:13:37;;;;;;;3.60;1.80;;;;;;;;;;3557861;40;20533;-73
2021/08/10 01:16:11;;;;;;;2.63;1.85;;;;;;;;;;3567485;40;20683;-73
2021/08/10 01:18:40;;;;;;;2.60;2.03;;;;;;;;;;3560464;40;20360;-73
2021/08/10 01:21:20;;;;;;;4.55;2.17;;;;;;;;;;3570872;40;20419;-73
2021/08/10 01:23:49;;;;;;;3.40;1.90;;;;;;;;;;3577300;40;20481;-72
2021/08/10 01:26:25;;;;;;;2.75;1.67;;;;;;;;;;3567924;40;20386;-74
2021/08/10 01:28:52;;;;;;;2.95;2.20;;;;;;;;;;3574756;40;20638;-73
2021/08/10 01:31:22;;;;;;;4.45;2.30;;;;;;;;;;3570976;40;20372;-72
2021/08/10 01:33:50;;;;;;;4.97;2.17;;;;;;;;;;3577647;40;20395;-74
2021/08/10 01:36:17;;;;;;;4.57;2.17;;;;;;;;;;3576029;40;20388;-73
2021/08/10 01:38:45;;;;;;;4.60;2.10;;;;;;;;;;3577775;40;20405;-73
2021/08/10 01:41:12;;;;;;;3.05;1.90;;;;;;;;;;3577616;40;20395;-73
2021/08/10 01:43:39;;;;;;;2.95;1.67;;;;;;;;;;3577917;40;20379;-73
2021/08/10 01:46:05;;;;;;;4.93;2.03;;;;;;;;;;3577708;40;20383;-74
2021/08/10 01:48:33;;;;;;;3.70;2.03;;;;;;;;;;3573637;40;20361;-73
2021/08/10 01:51:00;;;;;;;2.70;1.90;;;;;;;;;;3574708;40;20754;-73
2021/08/10 01:53:26;;;;;;;2.78;2.00;;;;;;;;;;3576209;40;20414;-72
2021/08/10 01:55:54;;;;;;;3.30;1.95;;;;;;;;;;3577641;40;20372;-73
2021/08/10 01:58:20;;;;;;;3.10;2.20;;;;;;;;;;3571157;40;20653;-74
2021/08/10 02:00:47;;;;;;;4.45;1.92;;;;;;;;;;3577473;40;20394;-75
2021/08/10 02:03:13;;;;;;;2.90;1.83;;;;;;;;;;3577566;40;20769;-73
2021/08/10 02:05:43;;;;;;;3.73;1.80;;;;;;;;;;3577541;40;20432;-74
2021/08/10 02:08:09;;;;;;;3.03;2.05;;;;;;;;;;3575917;40;20467;-71
2021/08/10 02:10:36;;;;;;;4.80;1.90;;;;;;;;;;3574578;40;20712;-74
2021/08/10 02:13:02;;;;;;;4.28;2.08;;;;;;;;;;3567457;40;20445;-73
2021/08/10 02:15:30;;;;;;;3.63;2.00;;;;;;;;;;3571005;40;20384;-73
2021/08/10 02:17:56;;;;;;;2.80;1.70;;;;;;;;;;3576391;40;20788;-72
2021/08/10 02:20:22;;;;;;;4.60;2.25;;;;;;;;;;3570864;40;20445;-73
2021/08/10 02:22:50;;;;;;;4.32;1.80;;;;;;;;;;3567275;40;20635;-73
2021/08/10 02:25:20;;;;;;;2.63;1.65;;;;;;;;;;3558348;40;20780;-73
2021/08/10 02:27:49;;;;;;;3.67;1.80;;;;;;;;;;3564207;40;20461;-73
2021/08/10 02:30:16;;;;;;;2.15;1.90;;;;;;;;;;3566377;40;20410;-72
2021/08/10 02:32:44;;;;;;;2.08;1.77;;;;;;;;;;3566983;40;20378;-72
2021/08/10 02:35:10;;;;;;;3.72;2.33;;;;;;;;;;3567273;40;20393;-73
2021/08/10 02:37:37;;;;;;;2.67;1.73;;;;;;;;;;3567059;40;20392;-72
2021/08/10 02:40:06;;;;;;;3.00;1.58;;;;;;;;;;3557732;40;20411;-72
2021/08/10 02:42:33;;;;;;;3.35;1.77;;;;;;;;;;3557067;40;20418;-74
2021/08/10 02:45:00;;;;;;;3.70;1.98;;;;;;;;;;3550475;40;20430;-73
2021/08/10 02:47:28;;;;;;;3.47;2.00;;;;;;;;;;3567416;40;20719;-73
2021/08/10 02:49:55;;;;;;;2.60;1.80;;;;;;;;;;3567341;40;20431;-72
2021/08/10 02:52:21;;;;;;;4.30;1.73;;;;;;;;;;3566874;40;20411;-72
2021/08/10 02:54:48;;;;;;;3.15;1.80;;;;;;;;;;3567426;40;20361;-72
2021/08/10 02:57:21;;;;;;;2.53;1.63;;;;;;;;;;3567044;40;20378;-72
2021/08/10 02:59:49;;;;;;;3.15;1.98;;;;;;;;;;3567318;40;20378;-73
2021/08/10 03:02:16;;;;;;;3.42;1.98;;;;;;;;;;3567027;40;20511;-72
2021/08/10 03:04:48;;;;;;;2.50;1.77;;;;;;;;;;3557236;40;20364;-72
2021/08/10 03:07:14;;;;;;;2.65;1.92;;;;;;;;;;3556966;40;20348;-73
2021/08/10 03:09:41;;;;;;;3.28;1.90;;;;;;;;;;3556174;40;20418;-73
2021/08/10 03:12:09;;;;;;;3.10;1.83;;;;;;;;;;3557100;40;20387;-77
2021/08/10 03:14:37;;;;;;;3.67;1.92;;;;;;;;;;3560773;40;20365;-72
2021/08/10 03:17:07;;;;;;;3.00;1.80;;;;;;;;;;3567184;40;20346;-73
2021/08/10 03:19:35;;;;;;;3.38;2.00;;;;;;;;;;3566689;40;20791;-73
2021/08/10 03:22:01;;;;;;;3.10;1.52;;;;;;;;;;3566852;40;20436;-75
2021/08/10 03:24:27;;;;;;;3.03;1.90;;;;;;;;;;3566961;40;20358;-73
2021/08/10 03:26:55;;;;;;;3.75;1.77;;;;;;;;;;3556838;40;20670;-75
2021/08/10 03:29:21;;;;;;;2.92;1.80;;;;;;;;;;3547504;40;20403;-72
2021/08/10 03:31:50;;;;;;;3.15;2.08;;;;;;;;;;3565832;40;20744;-73
2021/08/10 03:34:17;;;;;;;3.10;1.85;;;;;;;;;;3566724;40;20394;-73
2021/08/10 03:36:44;;;;;;;3.00;1.80;;;;;;;;;;3557442;40;20731;-75
2021/08/10 03:39:10;;;;;;;3.83;1.80;;;;;;;;;;3566906;40;20366;-72
2021/08/10 03:41:37;;;;;;;3.95;1.70;;;;;;;;;;3566871;40;20627;-73
2021/08/10 03:44:03;;;;;;;2.70;1.67;;;;;;;;;;3567790;40;20658;-72
2021/08/10 03:46:30;;;;;;;4.88;1.90;;;;;;;;;;3568218;40;20698;-72
2021/08/10 03:48:58;;;;;;;2.90;1.60;;;;;;;;;;3568454;40;20409;-73
2021/08/10 03:51:25;;;;;;;2.58;1.90;;;;;;;;;;3568059;40;20410;-72
2021/08/10 03:53:51;;;;;;;4.23;1.77;;;;;;;;;;3563216;40;20507;-72
2021/08/10 03:56:17;;;;;;;2.63;1.80;;;;;;;;;;3561471;40;20411;-71
2021/08/10 03:58:48;;;;;;;5.25;2.05;;;;;;;;;;3564126;40;20369;-71
2021/08/10 04:01:15;;;;;;;3.75;1.85;;;;;;;;;;3558336;40;20412;-72
2021/08/10 04:03:42;;;;;;;3.28;1.77;;;;;;;;;;3564220;40;20389;-71
2021/08/10 04:06:12;;;;;;;2.10;1.50;;;;;;;;;;3560659;40;20366;-72
2021/08/10 04:08:38;;;;;;;3.75;1.63;;;;;;;;;;3563225;40;20385;-71
2021/08/10 04:11:05;;;;;;;2.40;1.83;;;;;;;;;;3568072;40;20655;-71
2021/08/10 04:13:34;;;;;;;2.47;1.73;;;;;;;;;;3566123;40;20382;-72
2021/08/10 04:16:01;;;;;;;2.80;1.70;;;;;;;;;;3567955;40;20373;-72
2021/08/10 04:18:28;;;;;;;3.05;1.77;;;;;;;;;;3567740;40;20431;-72
2021/08/10 04:20:55;;;;;;;4.78;2.28;;;;;;;;;;3568623;40;20420;-72
2021/08/10 04:23:22;;;;;;;3.40;1.50;;;;;;;;;;3577867;40;20722;-71
2021/08/10 04:25:48;;;;;;;3.33;1.70;;;;;;;;;;3578133;40;20376;-71
2021/08/10 04:28:15;;;;;;;3.87;1.53;;;;;;;;;;3571104;40;20371;-73
2021/08/10 04:30:42;;;;;;;3.13;1.65;;;;;;;;;;3577822;40;20364;-72
2021/08/10 04:33:08;;;;;;;2.70;1.70;;;;;;;;;;3575567;40;20409;-71
2021/08/10 04:35:34;;;;;;;2.60;1.95;;;;;;;;;;3574203;40;20362;-71
2021/08/10 04:38:00;;;;;;;3.40;1.65;;;;;;;;;;3575010;40;20748;-73
2021/08/10 04:40:28;;;;;;;4.03;1.93;;;;;;;;;;3574977;40;20362;-72
2021/08/10 04:42:54;;;;;;;2.13;1.70;;;;;;;;;;3569018;40;20476;-71
2021/08/10 04:45:21;;;;;;;4.27;1.60;;;;;;;;;;3568000;40;20433;-72
2021/08/10 04:47:47;;;;;;;2.97;1.75;;;;;;;;;;3582274;40;20388;-73
2021/08/10 04:50:13;;;;;;;3.17;1.77;;;;;;;;;;3569896;40;20639;-72
2021/08/10 04:52:39;;;;;;;2.45;1.55;;;;;;;;;;3573187;40;20724;-72
2021/08/10 04:55:06;;;;;;;2.15;1.60;;;;;;;;;;3577699;40;20364;-72
2021/08/10 04:57:33;;;;;;;2.55;1.70;;;;;;;;;;3577883;40;20657;-72
2021/08/10 05:00:01;;;;;;;2.75;2.10;;;;;;;;;;3573114;40;20653;-74
2021/08/10 05:02:27;;;;;;;3.40;1.63;;;;;;;;;;3577854;40;20773;-72
2021/08/10 05:04:53;;;;;;;3.35;1.77;;;;;;;;;;3572894;40;20752;-74
2021/08/10 05:07:19;;;;;;;4.00;1.80;;;;;;;;;;3577545;40;20365;-77
2021/08/10 05:09:45;;;;;;;2.63;1.93;;;;;;;;;;3577502;40;20467;-74
2021/08/10 05:12:12;;;;;;;4.57;1.97;;;;;;;;;;3576503;40;20432;-73
2021/08/10 05:14:39;;;;;;;2.75;1.80;;;;;;;;;;3576582;40;20443;-79
2021/08/10 05:17:05;;;;;;;2.90;1.60;;;;;;;;;;3570879;40;20370;-73
2021/08/10 05:19:32;;;;;;;3.35;2.10;;;;;;;;;;3566468;40;20429;-73
2021/08/10 05:21:58;;;;;;;4.43;2.38;;;;;;;;;;3560560;40;20765;-74
2021/08/10 05:24:24;;;;;;;3.63;1.90;;;;;;;;;;3564216;40;20771;-74
2021/08/10 05:26:50;;;;;;;3.03;1.83;;;;;;;;;;3559776;40;20495;-73
2021/08/10 05:29:16;;;;;;;2.80;1.60;;;;;;;;;;3554286;40;20660;-73
2021/08/10 05:31:45;;;;;;;2.50;1.50;;;;;;;;;;3566194;40;20471;-74
2021/08/10 05:34:11;;;;;;;4.20;2.10;;;;;;;;;;3567336;40;20392;-73
2021/08/10 05:36:37;;;;;;;2.60;1.88;;;;;;;;;;3567354;40;20350;-73
2021/08/10 05:39:04;;;;;;;3.13;1.90;;;;;;;;;;3561046;40;20355;-76
2021/08/10 05:41:30;;;;;;;2.75;1.80;;;;;;;;;;3566878;40;20385;-73
2021/08/10 05:43:56;;;;;;;3.88;1.85;;;;;;;;;;3557858;40;20359;-73
2021/08/10 05:46:22;;;;;;;4.10;2.10;;;;;;;;;;3563699;40;20426;-73
2021/08/10 05:48:50;;;;;;;3.60;1.95;;;;;;;;;;3567359;40;20868;-74
2021/08/10 05:51:16;;;;;;;2.47;1.92;;;;;;;;;;3566294;40;20475;-73
2021/08/10 05:53:42;;;;;;;3.58;1.63;;;;;;;;;;3566490;40;20913;-74
2021/08/10 05:56:08;;;;;;;3.45;1.60;;;;;;;;;;3567372;40;20366;-74
2021/08/10 05:58:34;;;;;;;2.83;1.73;;;;;;;;;;3550210;40;20413;-74
2021/08/10 06:01:01;;;;;;;3.83;2.10;;;;;;;;;;3559904;40;20391;-73
2021/08/10 06:03:27;;;;;;;3.30;1.77;;;;;;;;;;3554358;40;20398;-74
2021/08/10 06:05:54;;;;;;;3.22;2.22;;;;;;;;;;3566853;40;20747;-73
2021/08/10 06:08:21;;;;;;;3.55;2.10;;;;;;;;;;3567254;40;20373;-73
2021/08/10 06:10:47;;;;;;;5.85;2.13;;;;;;;;;;3557764;40;20722;-74
2021/08/10 06:13:13;;;;;;;3.05;2.00;;;;;;;;;;3556226;40;20423;-73
2021/08/10 06:15:39;;;;;;;5.85;2.15;;;;;;;;;;3564024;40;20378;-73
2021/08/10 06:18:05;;;;;;;4.60;2.60;;;;;;;;;;3557356;40;20347;-74
2021/08/10 06:20:31;;;;;;;4.38;2.00;;;;;;;;;;3564514;40;20374;-74
2021/08/10 06:23:01;;;;;;;9.18;2.30;;;;;;;;;;3567178;40;20362;-73
2021/08/10 06:25:27;;;;;;;3.45;1.77;;;;;;;;;;3567294;40;20464;-73
2021/08/10 06:27:53;;;;;;;4.07;1.90;;;;;;;;;;3558222;40;20373;-74
2021/08/10 06:30:20;;;;;;;4.35;2.00;;;;;;;;;;3557887;40;20393;-76
2021/08/10 06:32:46;;;;;;;2.33;1.88;;;;;;;;;;3567310;40;20381;-74
2021/08/10 06:35:12;;;;;;;2.13;1.70;;;;;;;;;;3557961;40;20360;-74
2021/08/10 06:37:38;;;;;;;4.05;1.90;;;;;;;;;;3564808;40;20374;-74
2021/08/10 06:40:07;;;;;;;4.13;1.90;;;;;;;;;;3557643;40;20495;-74
2021/08/10 06:42:33;;;;;;;3.33;1.73;;;;;;;;;;3564735;40;20386;-76
2021/08/10 06:44:59;;;;;;;5.00;1.93;;;;;;;;;;3566743;40;20377;-74
2021/08/10 06:47:26;;;;;;;3.17;1.88;;;;;;;;;;3562885;40;20359;-74
2021/08/10 06:49:52;;;;;;;3.05;1.60;;;;;;;;;;3564740;40;20374;-74
2021/08/10 06:52:18;;;;;;;2.35;1.70;;;;;;;;;;3557675;40;20371;-76
2021/08/10 06:54:44;;;;;;;6.68;1.75;;;;;;;;;;3560467;40;20390;-73
2021/08/10 06:57:12;;;;;;;4.50;1.70;;;;;;;;;;3565812;40;20472;-74
2021/08/10 06:59:38;;;;;;;3.83;1.90;;;;;;;;;;3561652;40;20477;-73
2021/08/10 07:02:04;;;;;;;3.15;1.83;;;;;;;;;;3566628;40;20783;-72
2021/08/10 07:04:31;;;;;;;4.60;1.92;;;;;;;;;;3566635;40;20412;-73
2021/08/10 07:06:57;;;;;;;3.20;1.80;;;;;;;;;;3566570;40;20451;-72
2021/08/10 07:09:23;;;;;;;3.60;1.70;;;;;;;;;;3559069;40;20405;-71
2021/08/10 07:11:49;;;;;;;7.63;2.28;;;;;;;;;;3566768;40;20462;-71
2021/08/10 07:14:17;;;;;;;2.57;1.50;;;;;;;;;;3564230;40;20458;-72
2021/08/10 07:16:44;;;;;;;2.63;1.75;;;;;;;;;;3557140;40;20371;-72
2021/08/10 07:19:10;;;;;;;2.90;1.77;;;;;;;;;;3565062;40;20760;-72
2021/08/10 07:21:36;;;;;;;3.95;2.33;;;;;;;;;;3567072;40;20413;-72
2021/08/10 07:24:03;;;;;;;4.00;1.90;;;;;;;;;;3561753;40;20863;-72
2021/08/10 07:26:31;;;;;;;3.17;1.80;;;;;;;;;;3559611;40;20407;-72
2021/08/10 07:28:58;;;;;;;3.57;2.00;;;;;;;;;;3566736;40;20372;-71
2021/08/10 07:31:25;;;;;;;2.40;1.80;;;;;;;;;;3561585;40;20409;-71
2021/08/10 07:33:52;;;;;;;2.90;2.10;;;;;;;;;;3560448;40;20453;-72
2021/08/10 07:36:18;;;;;;;2.47;1.80;;;;;;;;;;3557169;40;20405;-72
2021/08/10 07:38:44;;;;;;;2.95;1.70;;;;;;;;;;3556946;40;20364;-71
2021/08/10 07:41:11;;;;;;;3.00;1.50;;;;;;;;;;3564577;40;20378;-72
2021/08/10 07:43:37;;;;;;;2.67;1.40;;;;;;;;;;3566372;40;20362;-74
2021/08/10 07:46:03;;;;;;;3.17;1.90;;;;;;;;;;3561877;40;20525;-73
2021/08/10 07:48:31;;;;;;;3.57;1.60;;;;;;;;;;3559604;40;20371;-72
2021/08/10 07:50:58;;;;;;;3.30;1.80;;;;;;;;;;3549023;40;20538;-72
2021/08/10 07:53:24;;;;;;;3.95;1.95;;;;;;;;;;3561806;40;20422;-72
2021/08/10 07:55:51;;;;;;;3.60;1.77;;;;;;;;;;3561898;40;20370;-72
2021/08/10 07:58:17;;;;;;;2.67;1.83;;;;;;;;;;3566405;40;20767;-77
2021/08/10 08:00:43;;;;;;;3.53;2.00;;;;;;;;;;3566124;40;20417;-72
2021/08/10 08:03:12;;;;;;;4.03;1.92;;;;;;;;;;3565179;40;20445;-72
2021/08/10 08:05:40;;;;;;;3.85;1.63;;;;;;;;;;3566340;40;20380;-72
2021/08/10 08:08:06;;;;;;;3.78;1.67;;;;;;;;;;3565495;40;20632;-72
2021/08/10 08:10:32;;;;;;;3.72;1.77;;;;;;;;;;3565261;40;20402;-73
2021/08/10 08:12:58;;;;;;;2.72;1.58;;;;;;;;;;3566494;40;20378;-72
2021/08/10 08:15:25;;;;;;;2.72;1.70;;;;;;;;;;3565041;40;20461;-73
2021/08/10 08:17:51;;;;;;;3.78;2.00;;;;;;;;;;3549966;40;20398;-72
2021/08/10 08:20:18;;;;;;;2.88;1.50;;;;;;;;;;3566356;40;20624;-73
2021/08/10 08:22:46;;;;;;;3.90;2.08;;;;;;;;;;3559543;40;20694;-72
2021/08/10 08:25:12;;;;;;;2.88;1.60;;;;;;;;;;3561857;40;20440;-72
2021/08/10 08:27:39;;;;;;;4.13;2.00;;;;;;;;;;3556551;40;20364;-72
2021/08/10 08:30:06;;;;;;;3.67;1.80;;;;;;;;;;3567073;40;20452;-72
2021/08/10 08:32:32;;;;;;;2.58;1.70;;;;;;;;;;3558457;40;20504;-72
2021/08/10 08:34:58;;;;;;;2.20;1.63;;;;;;;;;;3558461;40;20394;-74
2021/08/10 08:37:24;;;;;;;3.73;1.90;;;;;;;;;;3558352;40;20381;-73
2021/08/10 08:39:52;;;;;;;2.50;1.50;;;;;;;;;;3560672;40;20371;-73
2021/08/10 08:42:18;;;;;;;3.35;1.48;;;;;;;;;;3567576;40;20429;-73
2021/08/10 08:44:44;;;;;;;3.35;2.00;;;;;;;;;;3565786;40;20371;-73
2021/08/10 08:47:11;;;;;;;3.08;1.95;;;;;;;;;;3562901;40;20385;-74
2021/08/10 08:49:38;;;;;;;3.63;1.63;;;;;;;;;;3566366;40;20413;-73
2021/08/10 08:52:05;;;;;;;3.05;1.48;;;;;;;;;;3562360;40;20498;-73
2021/08/10 08:54:32;;;;;;;3.13;1.95;;;;;;;;;;3567626;40;20655;-73
2021/08/10 08:56:59;;;;;;;4.43;1.75;;;;;;;;;;3557920;40;20391;-77
2021/08/10 08:59:26;;;;;;;3.73;1.77;;;;;;;;;;3563647;40;20632;-73
2021/08/10 09:01:52;;;;;;;2.75;1.63;;;;;;;;;;3558529;40;20404;-73
2021/08/10 09:04:18;;;;;;;2.55;1.48;;;;;;;;;;3563141;40;20659;-73
2021/08/10 09:06:44;;;;;;;2.72;1.60;;;;;;;;;;3567540;40;20848;-76
2021/08/10 09:09:21;;;;;;;2.78;1.38;;;;;;;;;;3555884;40;20696;-74
2021/08/10 09:11:48;;;;;;;2.97;1.40;;;;;;;;;;3563627;40;20760;-74
2021/08/10 09:14:16;;;;;;;3.00;1.45;;;;;;;;;;3567532;40;20378;-73
2021/08/10 09:17:00;;;;;;;2.80;1.38;;;;;;;;;;3558081;40;20420;-74
2021/08/10 09:19:28;;;;;;;3.33;1.40;;;;;;;;;;3567820;40;20472;-74
2021/08/10 09:22:11;;;;;;;4.00;1.57;;;;;;;;;;3568710;40;20410;-74
2021/08/10 09:24:41;;;;;;;2.22;1.20;;;;;;;;;;3567493;40;20748;-73
2021/08/10 09:27:21;;;;;;;2.97;1.60;;;;;;;;;;3561418;40;20451;-73
2021/08/10 09:29:48;;;;;;;2.58;1.25;;;;;;;;;;3560757;40;20365;-79
2021/08/10 09:32:16;;;;;;;3.27;1.53;;;;;;;;;;3566875;40;20374;-73
2021/08/10 09:34:42;;;;;;;2.25;1.50;;;;;;;;;;3565112;40;20409;-73
2021/08/10 09:37:14;;;;;;;4.28;1.35;;;;;;;;;;3567438;40;20655;-73
2021/08/10 09:39:40;;;;;;;2.53;1.13;;;;;;;;;;3560905;40;20378;-73
2021/08/10 09:42:08;;;;;;;3.17;1.50;;;;;;;;;;3567311;40;20358;-73
2021/08/10 09:44:36;;;;;;;3.38;1.65;;;;;;;;;;3564697;40;20379;-79
2021/08/10 09:47:04;;;;;;;2.87;1.50;;;;;;;;;;3563549;40;20370;-73
2021/08/10 09:49:42;;;;;;;3.45;1.58;;;;;;;;;;3567397;40;20404;-76
2021/08/10 09:52:08;;;;;;;3.22;1.88;;;;;;;;;;3567860;40;20448;-74
2021/08/10 09:54:34;;;;;;;3.53;1.73;;;;;;;;;;3556588;40;20415;-73
2021/08/10 09:57:12;;;;;;;2.42;1.40;;;;;;;;;;3567570;40;20723;-75
2021/08/10 09:59:40;;;;;;;2.72;1.50;;;;;;;;;;3567314;40;20845;-73
2021/08/10 10:02:16;;;;;;;2.45;1.33;;;;;;;;;;3567505;40;20408;-73
2021/08/10 10:04:48;;;;;;;3.92;1.42;;;;;;;;;;3567361;40;20377;-77
2021/08/10 10:07:14;;;;;;;3.50;1.40;;;;;;;;;;3546038;40;20456;-74
2021/08/10 10:09:41;;;;;;;2.55;1.27;;;;;;;;;;3547982;40;20380;-73
2021/08/10 10:12:08;;;;;;;3.45;1.63;;;;;;;;;;3552080;40;20390;-74
2021/08/10 10:14:34;;;;;;;4.43;1.60;;;;;;;;;;3555002;40;20781;-78
2021/08/10 10:17:02;;;;;;;3.63;1.80;;;;;;;;;;3547531;40;20391;-74
2021/08/10 10:19:30;;;;;;;3.42;1.20;;;;;;;;;;3548505;40;20418;-73
2021/08/10 10:22:03;;;;;;;3.55;1.83;;;;;;;;;;3564174;40;20477;-74
2021/08/10 10:24:32;;;;;;;3.42;1.40;;;;;;;;;;3575422;40;20483;-75
2021/08/10 10:26:59;;;;;;;3.30;1.40;;;;;;;;;;3575230;40;20396;-74
2021/08/10 10:29:27;;;;;;;4.72;1.30;;;;;;;;;;3567340;40;20867;-73
2021/08/10 10:31:53;;;;;;;2.77;1.37;;;;;;;;;;3575549;40;20473;-75
2021/08/10 10:34:19;;;;;;;3.53;1.20;;;;;;;;;;3575308;40;20673;-74
2021/08/10 10:36:47;;;;;;;9.32;2.20;;;;;;;;;;3573596;40;20406;-73
2021/08/10 10:39:15;;;;;;;4.17;1.40;;;;;;;;;;3576884;40;20403;-75
2021/08/10 10:41:42;;;;;;;5.73;1.73;;;;;;;;;;3572846;40;20819;-73
2021/08/10 10:44:09;;;;;;;2.58;1.20;;;;;;;;;;3573519;40;20659;-75
2021/08/10 10:46:37;;;;;;;1.88;1.25;;;;;;;;;;3575828;40;20712;-74
2021/08/10 10:49:03;;;;;;;3.20;1.40;;;;;;;;;;3577046;40;20372;-74
2021/08/10 10:51:31;;;;;;;4.40;1.70;;;;;;;;;;3574331;40;20439;-74
2021/08/10 10:54:22;;;;;;;2.83;1.48;;;;;;;;;;3577146;40;20554;-74
2021/08/10 10:56:50;;;;;;;2.90;1.67;;;;;;;;;;3571059;40;20336;-74
2021/08/10 10:59:20;;;;;;;3.37;1.40;;;;;;;;;;3576988;40;20450;-77
2021/08/10 11:01:46;;;;;;;1.92;1.25;;;;;;;;;;3575505;40;20777;-74
2021/08/10 11:04:13;;;;;;;3.25;1.40;;;;;;;;;;3573470;40;20357;-73
2021/08/10 11:06:43;;;;;;;2.45;1.17;;;;;;;;;;3569003;40;20381;-74
2021/08/10 11:09:10;;;;;;;1.70;1.02;;;;;;;;;;3572728;40;20630;-74
2021/08/10 11:11:50;;;;;;;3.05;1.40;;;;;;;;;;3575994;40;20368;-74
2021/08/10 11:14:34;;;;;;;3.15;1.20;;;;;;;;;;3576739;40;20396;-74
2021/08/10 11:17:13;;;;;;;2.35;1.27;;;;;;;;;;3576921;40;20392;-74
2021/08/10 11:19:41;;;;;;;3.08;1.00;;;;;;;;;;3570251;40;20375;-75
2021/08/10 11:22:26;;;;;;;2.83;1.00;;;;;;;;;;3572023;40;20436;-74
2021/08/10 11:24:53;;;;;;;4.18;1.13;;;;;;;;;;3560895;40;20837;-74
2021/08/10 11:27:34;;;;;;;3.20;1.30;;;;;;;;;;3566833;40;20369;-73
2021/08/10 11:30:00;;;;;;;2.38;0.90;;;;;;;;;;3562750;40;20363;-76
2021/08/10 11:32:38;;;;;;;3.75;0.90;;;25.80;99.90;;;;;;3563841;40;20362;-74
2021/08/10 11:35:30;;;;;;;2.33;1.00;;;30.50;79.10;;;;;;3557325;40;20786;-74
2021/08/10 11:38:07;;;;;;;3.67;1.20;;;30.10;80.80;;;;;;3547516;40;20479;-76
2021/08/10 11:40:49;;;;;;;2.45;1.10;;;30.00;83.10;;;;;;3564806;40;20405;-74
2021/08/10 11:43:16;;;;;;;2.30;1.00;;;30.10;84.50;;;;;;3562553;40;20488;-74
2021/08/10 11:45:42;;;;;;;2.33;1.15;;;30.30;84.60;;;;;;3564392;40;20643;-74
2021/08/10 11:48:08;;;;;;;4.10;1.23;;;30.20;86.60;;;;;;3566766;40;20562;-75
2021/08/10 11:50:35;;;;;;;2.75;1.10;;;30.10;86.60;;;;;;3566587;40;20370;-74
2021/08/10 11:53:02;;;;;;;3.35;0.93;;;;;;;;;;3553908;40;20796;-75
2021/08/10 11:55:30;;;;;;;3.55;0.90;;;;;;;;;;3562087;40;20374;-75
2021/08/10 11:57:57;;;;;;;3.60;1.07;;;;;;;;;;3556849;40;20450;-73
2021/08/10 12:00:25;;;;;;;3.40;1.17;;;;;;;;;;3566452;40;20631;-74
2021/08/10 12:02:52;;;;;;;4.23;1.17;;;;;;;;;;3566330;40;20377;-75
2021/08/10 12:05:18;;;;;;;1.83;1.00;;;;;;;;;;3567702;40;20358;-74
2021/08/10 12:07:48;;;;;;;1.90;1.30;;;;;;;;;;3566545;40;20362;-75
2021/08/10 12:10:19;;;;;;;3.80;1.30;;;;;;;;;;3540059;40;20394;-76
2021/08/10 12:12:47;;;;;;;2.80;1.30;;;;;;;;;;3539683;40;20774;-74
2021/08/10 12:15:32;;;;;;;2.55;1.23;;;;;;;;;;3546608;40;20674;-73
2021/08/10 12:18:00;;;;;;;2.40;1.10;;;;;;;;;;3540536;40;20497;-74
2021/08/10 12:20:26;;;;;;;3.30;1.25;;;;;;;;;;3546558;40;20385;-74
2021/08/10 12:22:59;;;;;;;3.90;1.40;;;;;;;;;;3546428;40;20413;-74
2021/08/10 12:25:25;;;;;;;1.70;0.90;;;;;;;;;;3540718;40;20755;-74
2021/08/10 12:28:00;;;;;;;3.50;1.35;;;;;;;;;;3545803;40;20504;-74
2021/08/10 12:30:27;;;;;;;2.70;1.27;;;;;;;;;;3546571;40;20388;-74
2021/08/10 12:32:53;;;;;;;3.00;1.38;;;;;;;;;;3546416;40;20385;-73
2021/08/10 12:35:24;;;;;;;2.53;1.25;;;;;;;;;;3538301;40;20802;-73
2021/08/10 12:37:50;;;;;;;2.25;1.20;;;;;;;;;;3539471;40;20389;-73
2021/08/10 12:40:21;;;;;;;3.40;1.30;;;;;;;;;;3548635;40;20414;-72
2021/08/10 12:42:47;;;;;;;3.10;1.40;;;;;;;;;;3567516;40;20620;-72
2021/08/10 12:45:13;;;;;;;3.70;1.20;;;;;;;;;;3567951;40;20485;-73
2021/08/10 12:47:43;;;;;;;2.55;1.10;;;;;;;;;;3568032;40;20370;-75
2021/08/10 12:50:23;;;;;;;5.53;1.50;;;;;;;;;;3558908;40;20733;-75
2021/08/10 12:52:49;;;;;;;2.72;1.10;;;;;;;;;;3558691;40;20397;-78
2021/08/10 12:55:15;;;;;;;4.55;1.52;;;;;;;;;;3568103;40;20361;-75
2021/08/10 12:57:41;;;;;;;2.80;1.48;;;;;;;;;;3553016;40;20407;-72
2021/08/10 13:00:13;;;;;;;3.47;1.43;;;;;;;;;;3557202;40;20395;-72
2021/08/10 13:02:40;;;;;;;2.80;1.30;;;;;;;;;;3555323;40;20409;-73
2021/08/10 13:05:08;;;;;;;3.75;1.35;;;;;;;;;;3566806;40;20496;-73
2021/08/10 13:07:36;;;;;;;2.60;1.40;;;;;;;;;;3567743;40;20452;-73
2021/08/10 13:10:03;;;;;;;5.03;1.45;;;;;;;;;;3564107;40;20369;-72
2021/08/10 13:12:31;;;;;;;3.55;1.30;;;;;;;;;;3567600;40;20376;-73
2021/08/10 13:14:58;;;;;;;5.55;1.45;;;;;;;;;;3567470;40;20467;-72
2021/08/10 13:17:28;;;;;;;2.25;1.20;;;;;;;;;;3560698;40;20371;-73
2021/08/10 13:20:01;;;;;;;3.25;1.52;;;;;;;;;;3563056;40;20446;-73
2021/08/10 13:22:39;;;;;;;3.28;1.60;;;;;;;;;;3564599;40;20748;-73
2021/08/10 13:25:06;;;;;;;2.42;1.33;;;;;;;;;;3557568;40;20387;-72
2021/08/10 13:27:32;;;;;;;3.80;1.30;;;;;;;;;;3565492;40;20390;-73
2021/08/10 13:29:58;;;;;;;3.22;1.15;;;;;;;;;;3558631;40;20625;-73
2021/08/10 13:32:24;;;;;;;2.53;1.10;;;30.40;85.10;;;;;;3565980;40;20458;-72
2021/08/10 13:34:51;;;;;;;2.63;1.33;;;33.20;79.10;;;;;;3548007;40;20418;-74
2021/08/10 13:37:17;;;;;;;5.65;1.90;;;33.30;79.90;;;;;;3558252;40;20448;-72
2021/08/10 13:39:45;;;;;;;4.22;1.60;;;;;;;;;;3567181;40;20409;-72
2021/08/10 13:42:11;;;;;;;3.33;1.50;;;;;;;;;;3567581;40;20361;-73
2021/08/10 13:44:38;;;;;;;3.40;1.60;;;;;;;;;;3557913;40;20733;-72
2021/08/10 13:47:04;;;;;;;2.45;1.58;;;;;;;;;;3567363;40;20397;-72
2021/08/10 13:49:30;;;;;;;2.25;1.40;;;;;;;;;;3567189;40;20752;-72
2021/08/10 13:51:56;;;;;;;2.60;1.20;;;;;;;;;;3553176;40;20723;-75
2021/08/10 13:54:22;;;;;;;2.25;1.20;;;32.30;78.80;;;;;;3555332;40;20679;-72
2021/08/10 13:56:49;;;;;;;2.93;1.50;;;32.60;78.10;;;;;;3563479;40;20383;-73
2021/08/10 13:59:15;;;;;;;2.38;1.10;;;32.90;76.30;;;;;;3557345;40;20436;-73
2021/08/10 14:01:49;;;;;;;1.65;1.20;;;32.80;78.00;;;;;;3560021;40;20412;-72
2021/08/10 14:04:15;;;;;;;2.90;1.30;;;32.80;78.90;;;;;;3557778;40;20403;-72
2021/08/10 14:06:41;;;;;;;2.47;1.37;;;32.80;82.20;;;;;;3561569;40;20378;-72
2021/08/10 14:09:07;;;;;;;2.28;1.00;;;32.40;79.90;;;;;;3567313;40;20409;-73
2021/08/10 14:11:33;;;;;;;2.97;1.35;;;32.40;80.40;;;;;;3567348;40;20377;-74
2021/08/10 14:14:00;;;;;;;2.10;0.97;;;32.50;78.70;;;;;;3567129;40;20378;-74
2021/08/10 14:16:26;;;;;;;2.78;1.35;;;32.70;78.70;;;;;;3567408;40;20366;-72
2021/08/10 14:18:52;;;;;;;2.95;1.20;;;33.00;79.40;;;;;;3567378;40;20384;-73
2021/08/10 14:21:21;;;;;;;2.70;1.20;;;33.00;77.30;;;;;;3567978;40;20367;-73
2021/08/10 14:23:47;;;;;;;4.78;1.27;;;32.40;79.10;;;;;;3566168;40;20503;-74
2021/08/10 14:26:13;;;;;;;3.60;1.38;;;32.10;78.70;;;;;;3576704;40;20372;-73
2021/08/10 14:28:39;;;;;;;3.70;1.23;;;32.10;82.90;;;;;;3568030;40;20399;-73
2021/08/10 14:31:12;;;;;;;4.68;1.38;;;32.40;82.10;;;;;;3571064;40;20430;-72
2021/08/10 14:33:38;;;;;;;2.53;1.42;;;32.50;80.10;;;;;;3568163;40;20406;-74
2021/08/10 14:36:04;;;;;;;2.63;1.10;;;32.70;79.90;;;;;;3575945;40;20364;-73